Terminal Aerodrome Forecast
Issued by NWS Sioux Falls, SD

Home | Current Version | Previous Version | Text Only | Print | Product List | Glossary Off
Versions: 1 2 3 4 5 6 7 8 9 10 11 12 13 14 15 16 17

000
FTUS43 KFSD 302342
TAFHON
TAF
KHON 302342Z 3100/3124 VRB04KT P6SM SCT250
     FM310600 36008KT P6SM BKN250
     FM310900 02011KT P6SM OVC008
     FM311500 04014KT P6SM SCT008 OVC015=

USA.gov is the U.S. government's official web portal to all federal, state and local government web resources and services.